SAAJ/JNI METAR and TAF weather

Enter ICAO airport designator
Station Type Date Time Source
SAAJ METAR 2019/12/03 09:40 UTC NOAA

SAAJ 030940Z 02016KT 7000 -TSRA SQ FEW035 SCT045CB BKN050 15/11 Q1009


Station Type Date Time Source
SAAJ Decoded METAR 2019/12/03 09:40 UTC NOAA

Junin Aerodrome, Argentina (SAAJ) 34-33S 060-55W 81M
Dec 03, 2019 - 04:40 AM EST / 2019.12.03 0940 UTC
Wind: from the NNE (020 degrees) at 18 MPH (16 KT):0
Visibility: 4 mile(s):0
Sky conditions: mostly cloudy
Weather: light rain with thunder; squalls; Cumulonimbus clouds observed
Temperature: 59 F (15 C)
Dew Point: 51 F (11 C)
Relative Humidity: 76%
Pressure (altimeter): 29.80 in. Hg (1009 hPa)
ob: SAAJ 030940Z 02016KT 7000 -TSRA SQ FEW035 SCT045CB BKN050 15/11 Q1009
cycle: 9

Station Type Date Time Source
SAAJ TAF UTC NOAA

Error!

Example: see airport list